sensor_id;sensor_type;location;lat;lon;timestamp;P1;durP1;ratioP1;P2;durP2;ratioP2
56477;SDS011;42382;53.210;5.772;2022-11-15T00:00:55;26.98;;;16.85;;
56477;SDS011;42382;53.210;5.772;2022-11-15T00:03:23;25.52;;;16.52;;
56477;SDS011;42382;53.210;5.772;2022-11-15T00:05:49;26.90;;;17.33;;
56477;SDS011;42382;53.210;5.772;2022-11-15T00:08:15;23.48;;;15.63;;
56477;SDS011;42382;53.210;5.772;2022-11-15T00:10:41;22.85;;;16.00;;
56477;SDS011;42382;53.210;5.772;2022-11-15T00:13:11;25.42;;;15.85;;
56477;SDS011;42382;53.210;5.772;2022-11-15T00:15:38;25.20;;;16.95;;
56477;SDS011;42382;53.210;5.772;2022-11-15T00:18:04;23.63;;;15.98;;
56477;SDS011;42382;53.210;5.772;2022-11-15T00:20:31;23.85;;;16.25;;
56477;SDS011;42382;53.210;5.772;2022-11-15T00:22:57;22.45;;;15.27;;
56477;SDS011;42382;53.210;5.772;2022-11-15T00:25:23;23.90;;;15.63;;
56477;SDS011;42382;53.210;5.772;2022-11-15T00:27:49;23.20;;;15.73;;
56477;SDS011;42382;53.210;5.772;2022-11-15T00:30:16;25.10;;;15.85;;
56477;SDS011;42382;53.210;5.772;2022-11-15T00:32:42;22.67;;;14.63;;
56477;SDS011;42382;53.210;5.772;2022-11-15T00:35:08;25.67;;;15.80;;
56477;SDS011;42382;53.210;5.772;2022-11-15T00:37:34;24.95;;;15.77;;
56477;SDS011;42382;53.210;5.772;2022-11-15T00:40:00;23.90;;;16.05;;
56477;SDS011;42382;53.210;5.772;2022-11-15T00:42:26;26.42;;;15.45;;
56477;SDS011;42382;53.210;5.772;2022-11-15T00:44:52;22.00;;;15.55;;
56477;SDS011;42382;53.210;5.772;2022-11-15T00:47:18;23.08;;;15.60;;
56477;SDS011;42382;53.210;5.772;2022-11-15T00:49:44;27.88;;;17.15;;
56477;SDS011;42382;53.210;5.772;2022-11-15T00:52:10;23.77;;;16.25;;
56477;SDS011;42382;53.210;5.772;2022-11-15T00:54:36;25.73;;;16.23;;
56477;SDS011;42382;53.210;5.772;2022-11-15T00:57:02;24.83;;;16.95;;
56477;SDS011;42382;53.210;5.772;2022-11-15T00:59:28;26.15;;;17.27;;
56477;SDS011;42382;53.210;5.772;2022-11-15T01:01:54;23.58;;;16.60;;
56477;SDS011;42382;53.210;5.772;2022-11-15T01:04:20;27.23;;;17.83;;
56477;SDS011;42382;53.210;5.772;2022-11-15T01:06:46;25.10;;;17.45;;
56477;SDS011;42382;53.210;5.772;2022-11-15T01:09:12;24.92;;;17.65;;
56477;SDS011;42382;53.210;5.772;2022-11-15T01:11:38;26.95;;;17.52;;
56477;SDS011;42382;53.210;5.772;2022-11-15T01:14:05;26.42;;;17.92;;
56477;SDS011;42382;53.210;5.772;2022-11-15T01:16:31;25.75;;;17.85;;
56477;SDS011;42382;53.210;5.772;2022-11-15T01:18:58;26.08;;;17.50;;
56477;SDS011;42382;53.210;5.772;2022-11-15T01:21:24;27.25;;;18.27;;
56477;SDS011;42382;53.210;5.772;2022-11-15T01:23:53;29.27;;;19.17;;
56477;SDS011;42382;53.210;5.772;2022-11-15T01:26:20;25.67;;;17.15;;
56477;SDS011;42382;53.210;5.772;2022-11-15T01:28:46;31.90;;;18.42;;
56477;SDS011;42382;53.210;5.772;2022-11-15T01:31:16;28.13;;;18.17;;
56477;SDS011;42382;53.210;5.772;2022-11-15T01:33:43;26.17;;;17.90;;
56477;SDS011;42382;53.210;5.772;2022-11-15T01:36:13;27.30;;;18.65;;
56477;SDS011;42382;53.210;5.772;2022-11-15T01:38:39;32.83;;;19.88;;
56477;SDS011;42382;53.210;5.772;2022-11-15T01:41:05;35.17;;;20.33;;
56477;SDS011;42382;53.210;5.772;2022-11-15T01:43:33;35.95;;;22.67;;
56477;SDS011;42382;53.210;5.772;2022-11-15T01:46:06;31.02;;;21.67;;
56477;SDS011;42382;53.210;5.772;2022-11-15T01:48:38;33.65;;;21.25;;
56477;SDS011;42382;53.210;5.772;2022-11-15T01:51:06;36.50;;;22.73;;
56477;SDS011;42382;53.210;5.772;2022-11-15T01:53:34;35.03;;;21.75;;
56477;SDS011;42382;53.210;5.772;2022-11-15T01:56:05;31.35;;;21.25;;
56477;SDS011;42382;53.210;5.772;2022-11-15T01:58:31;34.60;;;21.63;;
56477;SDS011;42382;53.210;5.772;2022-11-15T02:00:58;36.20;;;22.95;;
56477;SDS011;42382;53.210;5.772;2022-11-15T02:03:25;34.63;;;21.85;;
56477;SDS011;42382;53.210;5.772;2022-11-15T02:05:52;36.75;;;22.17;;
56477;SDS011;42382;53.210;5.772;2022-11-15T02:08:18;34.10;;;21.83;;
56477;SDS011;42382;53.210;5.772;2022-11-15T02:10:47;32.75;;;21.20;;
56477;SDS011;42382;53.210;5.772;2022-11-15T02:13:14;34.85;;;22.10;;
56477;SDS011;42382;53.210;5.772;2022-11-15T02:15:52;33.00;;;20.25;;
56477;SDS011;42382;53.210;5.772;2022-11-15T02:18:26;34.03;;;21.42;;
56477;SDS011;42382;53.210;5.772;2022-11-15T02:31:13;36.45;;;21.13;;
56477;SDS011;42382;53.210;5.772;2022-11-15T02:36:11;38.47;;;21.42;;
56477;SDS011;42382;53.210;5.772;2022-11-15T02:38:43;36.53;;;21.77;;
56477;SDS011;42382;53.210;5.772;2022-11-15T02:41:17;35.55;;;20.92;;
56477;SDS011;42382;53.210;5.772;2022-11-15T02:43:47;36.63;;;22.00;;
56477;SDS011;42382;53.210;5.772;2022-11-15T02:46:29;33.63;;;20.55;;
56477;SDS011;42382;53.210;5.772;2022-11-15T02:49:14;34.92;;;20.77;;
56477;SDS011;42382;53.210;5.772;2022-11-15T02:51:40;36.15;;;22.60;;
56477;SDS011;42382;53.210;5.772;2022-11-15T02:54:10;36.83;;;20.45;;
56477;SDS011;42382;53.210;5.772;2022-11-15T02:56:36;34.50;;;21.02;;
56477;SDS011;42382;53.210;5.772;2022-11-15T03:01:36;42.13;;;22.55;;
56477;SDS011;42382;53.210;5.772;2022-11-15T03:04:21;37.08;;;21.08;;
56477;SDS011;42382;53.210;5.772;2022-11-15T03:06:54;41.85;;;23.15;;
56477;SDS011;42382;53.210;5.772;2022-11-15T03:09:28;38.95;;;21.63;;
56477;SDS011;42382;53.210;5.772;2022-11-15T03:12:41;42.53;;;21.98;;
56477;SDS011;42382;53.210;5.772;2022-11-15T03:14:52;45.67;;;22.25;;
56477;SDS011;42382;53.210;5.772;2022-11-15T03:17:30;48.78;;;23.80;;
56477;SDS011;42382;53.210;5.772;2022-11-15T03:20:01;48.55;;;24.45;;
56477;SDS011;42382;53.210;5.772;2022-11-15T03:22:29;49.50;;;23.75;;
56477;SDS011;42382;53.210;5.772;2022-11-15T03:24:57;45.45;;;24.02;;
56477;SDS011;42382;53.210;5.772;2022-11-15T03:27:25;40.25;;;23.00;;
56477;SDS011;42382;53.210;5.772;2022-11-15T03:29:55;40.80;;;22.90;;
56477;SDS011;42382;53.210;5.772;2022-11-15T03:32:26;47.20;;;24.75;;
56477;SDS011;42382;53.210;5.772;2022-11-15T03:34:56;47.05;;;24.15;;
56477;SDS011;42382;53.210;5.772;2022-11-15T03:40:08;56.83;;;26.08;;
56477;SDS011;42382;53.210;5.772;2022-11-15T03:45:19;56.28;;;24.77;;
56477;SDS011;42382;53.210;5.772;2022-11-15T03:48:01;60.60;;;26.33;;
56477;SDS011;42382;53.210;5.772;2022-11-15T03:50:28;57.35;;;24.52;;
56477;SDS011;42382;53.210;5.772;2022-11-15T03:52:55;64.68;;;26.55;;
56477;SDS011;42382;53.210;5.772;2022-11-15T03:55:21;60.80;;;27.73;;
56477;SDS011;42382;53.210;5.772;2022-11-15T03:57:48;71.13;;;29.20;;
56477;SDS011;42382;53.210;5.772;2022-11-15T04:00:15;65.75;;;27.73;;
56477;SDS011;42382;53.210;5.772;2022-11-15T04:02:41;64.72;;;26.60;;
56477;SDS011;42382;53.210;5.772;2022-11-15T04:05:07;67.90;;;26.77;;
56477;SDS011;42382;53.210;5.772;2022-11-15T04:07:33;65.60;;;28.15;;
56477;SDS011;42382;53.210;5.772;2022-11-15T04:09:59;64.35;;;26.60;;
56477;SDS011;42382;53.210;5.772;2022-11-15T04:12:32;63.83;;;26.58;;
56477;SDS011;42382;53.210;5.772;2022-11-15T04:14:58;70.50;;;28.00;;
56477;SDS011;42382;53.210;5.772;2022-11-15T04:17:50;78.03;;;27.15;;
56477;SDS011;42382;53.210;5.772;2022-11-15T04:23:03;72.38;;;29.13;;
56477;SDS011;42382;53.210;5.772;2022-11-15T04:25:49;72.68;;;28.75;;
56477;SDS011;42382;53.210;5.772;2022-11-15T04:28:15;71.43;;;27.92;;
56477;SDS011;42382;53.210;5.772;2022-11-15T04:30:41;64.65;;;26.83;;
56477;SDS011;42382;53.210;5.772;2022-11-15T04:33:07;70.22;;;28.45;;
56477;SDS011;42382;53.210;5.772;2022-11-15T04:35:33;61.70;;;25.92;;
56477;SDS011;42382;53.210;5.772;2022-11-15T04:37:59;65.38;;;24.98;;
56477;SDS011;42382;53.210;5.772;2022-11-15T04:40:25;63.65;;;26.20;;
56477;SDS011;42382;53.210;5.772;2022-11-15T04:42:51;67.55;;;26.50;;
56477;SDS011;42382;53.210;5.772;2022-11-15T04:45:17;62.03;;;24.88;;
56477;SDS011;42382;53.210;5.772;2022-11-15T04:47:44;55.40;;;25.48;;
56477;SDS011;42382;53.210;5.772;2022-11-15T04:50:10;64.47;;;26.70;;
56477;SDS011;42382;53.210;5.772;2022-11-15T04:52:52;59.15;;;26.00;;
56477;SDS011;42382;53.210;5.772;2022-11-15T04:55:18;64.80;;;25.75;;
56477;SDS011;42382;53.210;5.772;2022-11-15T04:57:44;58.35;;;26.00;;
56477;SDS011;42382;53.210;5.772;2022-11-15T05:00:12;55.20;;;24.02;;
56477;SDS011;42382;53.210;5.772;2022-11-15T05:02:39;55.72;;;24.02;;
56477;SDS011;42382;53.210;5.772;2022-11-15T05:05:24;55.83;;;24.60;;
56477;SDS011;42382;53.210;5.772;2022-11-15T05:07:50;57.40;;;24.88;;
56477;SDS011;42382;53.210;5.772;2022-11-15T05:10:16;59.65;;;25.77;;
56477;SDS011;42382;53.210;5.772;2022-11-15T05:12:42;63.05;;;26.75;;
56477;SDS011;42382;53.210;5.772;2022-11-15T05:15:08;61.85;;;25.38;;
56477;SDS011;42382;53.210;5.772;2022-11-15T05:17:34;60.45;;;24.90;;
56477;SDS011;42382;53.210;5.772;2022-11-15T05:20:00;66.95;;;25.92;;
56477;SDS011;42382;53.210;5.772;2022-11-15T05:22:26;66.93;;;26.73;;
56477;SDS011;42382;53.210;5.772;2022-11-15T05:24:52;68.47;;;26.63;;
56477;SDS011;42382;53.210;5.772;2022-11-15T05:27:18;69.68;;;27.08;;
56477;SDS011;42382;53.210;5.772;2022-11-15T05:29:44;77.15;;;28.35;;
56477;SDS011;42382;53.210;5.772;2022-11-15T05:32:10;76.07;;;29.15;;
56477;SDS011;42382;53.210;5.772;2022-11-15T05:34:37;77.70;;;29.05;;
56477;SDS011;42382;53.210;5.772;2022-11-15T05:37:03;80.90;;;29.67;;
56477;SDS011;42382;53.210;5.772;2022-11-15T05:39:29;80.88;;;31.00;;
56477;SDS011;42382;53.210;5.772;2022-11-15T05:42:06;94.85;;;31.60;;
56477;SDS011;42382;53.210;5.772;2022-11-15T05:44:33;78.05;;;29.67;;
56477;SDS011;42382;53.210;5.772;2022-11-15T05:47:00;115.97;;;34.05;;
56477;SDS011;42382;53.210;5.772;2022-11-15T05:49:27;94.82;;;32.17;;
56477;SDS011;42382;53.210;5.772;2022-11-15T05:51:55;85.45;;;30.48;;
56477;SDS011;42382;53.210;5.772;2022-11-15T05:54:22;96.93;;;32.35;;
56477;SDS011;42382;53.210;5.772;2022-11-15T05:56:49;98.30;;;33.13;;
56477;SDS011;42382;53.210;5.772;2022-11-15T05:59:15;93.60;;;31.98;;
56477;SDS011;42382;53.210;5.772;2022-11-15T06:01:41;106.50;;;34.13;;
56477;SDS011;42382;53.210;5.772;2022-11-15T06:04:07;80.60;;;30.50;;
56477;SDS011;42382;53.210;5.772;2022-11-15T06:06:33;86.40;;;32.15;;
56477;SDS011;42382;53.210;5.772;2022-11-15T06:08:59;86.65;;;32.33;;
56477;SDS011;42382;53.210;5.772;2022-11-15T06:11:25;90.60;;;32.78;;
56477;SDS011;42382;53.210;5.772;2022-11-15T06:13:51;87.68;;;31.75;;
56477;SDS011;42382;53.210;5.772;2022-11-15T06:16:17;87.75;;;31.08;;
56477;SDS011;42382;53.210;5.772;2022-11-15T06:18:43;80.35;;;30.88;;
56477;SDS011;42382;53.210;5.772;2022-11-15T06:21:09;85.30;;;31.40;;
56477;SDS011;42382;53.210;5.772;2022-11-15T06:23:35;75.80;;;32.15;;
56477;SDS011;42382;53.210;5.772;2022-11-15T06:26:02;81.60;;;31.63;;
56477;SDS011;42382;53.210;5.772;2022-11-15T06:28:29;77.72;;;31.63;;
56477;SDS011;42382;53.210;5.772;2022-11-15T06:30:55;79.35;;;32.10;;
56477;SDS011;42382;53.210;5.772;2022-11-15T06:33:21;88.35;;;33.25;;
56477;SDS011;42382;53.210;5.772;2022-11-15T06:35:48;89.50;;;34.30;;
56477;SDS011;42382;53.210;5.772;2022-11-15T06:38:13;81.13;;;32.75;;
56477;SDS011;42382;53.210;5.772;2022-11-15T06:40:39;85.97;;;32.97;;
56477;SDS011;42382;53.210;5.772;2022-11-15T06:43:05;88.70;;;34.10;;
56477;SDS011;42382;53.210;5.772;2022-11-15T06:45:32;78.13;;;33.58;;
56477;SDS011;42382;53.210;5.772;2022-11-15T06:47:58;83.90;;;33.53;;
56477;SDS011;42382;53.210;5.772;2022-11-15T06:50:24;84.32;;;35.75;;
56477;SDS011;42382;53.210;5.772;2022-11-15T06:52:50;74.40;;;31.88;;
56477;SDS011;42382;53.210;5.772;2022-11-15T06:55:16;85.25;;;33.85;;
56477;SDS011;42382;53.210;5.772;2022-11-15T06:57:46;77.00;;;32.80;;
56477;SDS011;42382;53.210;5.772;2022-11-15T07:00:12;89.70;;;34.72;;
56477;SDS011;42382;53.210;5.772;2022-11-15T07:02:38;88.28;;;35.72;;
56477;SDS011;42382;53.210;5.772;2022-11-15T07:05:04;92.18;;;35.15;;
56477;SDS011;42382;53.210;5.772;2022-11-15T07:07:30;109.93;;;42.60;;
56477;SDS011;42382;53.210;5.772;2022-11-15T07:09:56;95.88;;;37.55;;
56477;SDS011;42382;53.210;5.772;2022-11-15T07:12:22;92.78;;;37.83;;
56477;SDS011;42382;53.210;5.772;2022-11-15T07:14:48;100.85;;;36.38;;
56477;SDS011;42382;53.210;5.772;2022-11-15T07:17:14;101.40;;;36.22;;
56477;SDS011;42382;53.210;5.772;2022-11-15T07:19:40;100.38;;;37.53;;
56477;SDS011;42382;53.210;5.772;2022-11-15T07:22:06;95.95;;;36.28;;
56477;SDS011;42382;53.210;5.772;2022-11-15T07:24:32;94.07;;;36.92;;
56477;SDS011;42382;53.210;5.772;2022-11-15T07:26:58;102.57;;;38.63;;
56477;SDS011;42382;53.210;5.772;2022-11-15T07:29:24;103.00;;;40.60;;
56477;SDS011;42382;53.210;5.772;2022-11-15T07:31:50;98.85;;;37.35;;
56477;SDS011;42382;53.210;5.772;2022-11-15T07:34:16;96.57;;;38.05;;
56477;SDS011;42382;53.210;5.772;2022-11-15T07:36:42;103.18;;;38.78;;
56477;SDS011;42382;53.210;5.772;2022-11-15T07:39:08;95.38;;;38.42;;
56477;SDS011;42382;53.210;5.772;2022-11-15T07:41:34;90.93;;;38.50;;
56477;SDS011;42382;53.210;5.772;2022-11-15T07:44:00;98.93;;;39.00;;
56477;SDS011;42382;53.210;5.772;2022-11-15T07:46:26;95.75;;;38.53;;
56477;SDS011;42382;53.210;5.772;2022-11-15T07:48:52;89.50;;;37.67;;
56477;SDS011;42382;53.210;5.772;2022-11-15T07:51:18;88.00;;;37.70;;
56477;SDS011;42382;53.210;5.772;2022-11-15T07:53:44;90.90;;;37.15;;
56477;SDS011;42382;53.210;5.772;2022-11-15T07:56:11;87.47;;;35.53;;
56477;SDS011;42382;53.210;5.772;2022-11-15T07:58:37;77.43;;;33.83;;
56477;SDS011;42382;53.210;5.772;2022-11-15T08:01:03;73.07;;;34.05;;
56477;SDS011;42382;53.210;5.772;2022-11-15T08:03:29;75.03;;;34.80;;
56477;SDS011;42382;53.210;5.772;2022-11-15T08:05:55;75.90;;;33.38;;
56477;SDS011;42382;53.210;5.772;2022-11-15T08:08:21;77.15;;;35.03;;
56477;SDS011;42382;53.210;5.772;2022-11-15T08:10:47;77.80;;;35.72;;
56477;SDS011;42382;53.210;5.772;2022-11-15T08:13:13;74.45;;;35.05;;
56477;SDS011;42382;53.210;5.772;2022-11-15T08:15:39;72.72;;;33.40;;
56477;SDS011;42382;53.210;5.772;2022-11-15T08:18:08;75.60;;;35.15;;
56477;SDS011;42382;53.210;5.772;2022-11-15T08:20:34;71.20;;;33.67;;
56477;SDS011;42382;53.210;5.772;2022-11-15T08:23:01;64.63;;;33.72;;
56477;SDS011;42382;53.210;5.772;2022-11-15T08:25:28;63.97;;;32.50;;
56477;SDS011;42382;53.210;5.772;2022-11-15T08:27:58;68.95;;;33.30;;
56477;SDS011;42382;53.210;5.772;2022-11-15T08:30:24;61.55;;;30.67;;
56477;SDS011;42382;53.210;5.772;2022-11-15T08:32:51;62.83;;;31.00;;
56477;SDS011;42382;53.210;5.772;2022-11-15T08:35:17;62.42;;;31.92;;
56477;SDS011;42382;53.210;5.772;2022-11-15T08:37:43;63.45;;;31.10;;
56477;SDS011;42382;53.210;5.772;2022-11-15T08:40:09;58.53;;;31.15;;
56477;SDS011;42382;53.210;5.772;2022-11-15T08:42:35;60.28;;;31.17;;
56477;SDS011;42382;53.210;5.772;2022-11-15T08:45:02;53.65;;;28.98;;
56477;SDS011;42382;53.210;5.772;2022-11-15T08:47:28;55.22;;;30.27;;
56477;SDS011;42382;53.210;5.772;2022-11-15T08:49:54;58.30;;;30.90;;
56477;SDS011;42382;53.210;5.772;2022-11-15T08:52:20;57.63;;;30.33;;
56477;SDS011;42382;53.210;5.772;2022-11-15T08:54:46;59.85;;;31.50;;
56477;SDS011;42382;53.210;5.772;2022-11-15T08:57:12;55.72;;;29.60;;
56477;SDS011;42382;53.210;5.772;2022-11-15T08:59:38;55.22;;;30.77;;
56477;SDS011;42382;53.210;5.772;2022-11-15T09:02:04;51.67;;;28.52;;
56477;SDS011;42382;53.210;5.772;2022-11-15T09:04:30;51.85;;;29.35;;
56477;SDS011;42382;53.210;5.772;2022-11-15T09:06:56;52.67;;;29.27;;
56477;SDS011;42382;53.210;5.772;2022-11-15T09:09:22;49.63;;;29.60;;
56477;SDS011;42382;53.210;5.772;2022-11-15T09:11:48;54.33;;;27.48;;
56477;SDS011;42382;53.210;5.772;2022-11-15T09:14:15;54.67;;;27.98;;
56477;SDS011;42382;53.210;5.772;2022-11-15T09:16:41;44.03;;;27.10;;
56477;SDS011;42382;53.210;5.772;2022-11-15T09:19:07;48.10;;;27.40;;
56477;SDS011;42382;53.210;5.772;2022-11-15T09:21:33;45.50;;;27.48;;
56477;SDS011;42382;53.210;5.772;2022-11-15T09:23:59;46.83;;;27.15;;
56477;SDS011;42382;53.210;5.772;2022-11-15T09:26:25;42.60;;;26.88;;
56477;SDS011;42382;53.210;5.772;2022-11-15T09:28:51;49.15;;;27.88;;
56477;SDS011;42382;53.210;5.772;2022-11-15T09:31:18;44.38;;;26.05;;
56477;SDS011;42382;53.210;5.772;2022-11-15T09:33:44;42.80;;;26.38;;
56477;SDS011;42382;53.210;5.772;2022-11-15T09:36:11;42.13;;;25.92;;
56477;SDS011;42382;53.210;5.772;2022-11-15T09:38:37;43.10;;;26.55;;
56477;SDS011;42382;53.210;5.772;2022-11-15T09:44:22;41.93;;;24.03;;
56477;SDS011;42382;53.210;5.772;2022-11-15T09:49:13;37.90;;;24.80;;
56477;SDS011;42382;53.210;5.772;2022-11-15T09:51:44;37.45;;;23.15;;
56477;SDS011;42382;53.210;5.772;2022-11-15T09:56:46;35.70;;;25.42;;
56477;SDS011;42382;53.210;5.772;2022-11-15T09:59:26;41.15;;;23.80;;
56477;SDS011;42382;53.210;5.772;2022-11-15T10:04:38;37.10;;;23.08;;
56477;SDS011;42382;53.210;5.772;2022-11-15T10:12:22;37.05;;;24.52;;
56477;SDS011;42382;53.210;5.772;2022-11-15T10:14:49;34.92;;;22.77;;
56477;SDS011;42382;53.210;5.772;2022-11-15T10:22:29;34.88;;;22.52;;
56477;SDS011;42382;53.210;5.772;2022-11-15T10:27:40;38.00;;;22.23;;
56477;SDS011;42382;53.210;5.772;2022-11-15T10:30:12;33.40;;;23.10;;
56477;SDS011;42382;53.210;5.772;2022-11-15T10:37:30;33.50;;;22.20;;
56477;SDS011;42382;53.210;5.772;2022-11-15T10:44:48;31.70;;;20.15;;
56477;SDS011;42382;53.210;5.772;2022-11-15T10:50:00;28.33;;;17.38;;
56477;SDS011;42382;53.210;5.772;2022-11-15T11:04:48;28.88;;;17.70;;
56477;SDS011;42382;53.210;5.772;2022-11-15T11:07:22;29.25;;;17.80;;
56477;SDS011;42382;53.210;5.772;2022-11-15T11:09:56;23.58;;;16.30;;
56477;SDS011;42382;53.210;5.772;2022-11-15T11:12:27;27.90;;;16.42;;
56477;SDS011;42382;53.210;5.772;2022-11-15T11:14:53;26.58;;;17.13;;
56477;SDS011;42382;53.210;5.772;2022-11-15T11:17:24;24.92;;;16.67;;
56477;SDS011;42382;53.210;5.772;2022-11-15T14:25:12;4.00;;;2.40;;
56477;SDS011;42382;53.210;5.772;2022-11-15T14:27:39;5.15;;;2.58;;
56477;SDS011;42382;53.210;5.772;2022-11-15T14:30:06;2.47;;;2.10;;
56477;SDS011;42382;53.210;5.772;2022-11-15T14:32:44;6.10;;;2.58;;
56477;SDS011;42382;53.210;5.772;2022-11-15T14:35:17;6.60;;;2.08;;
56477;SDS011;42382;53.210;5.772;2022-11-15T14:37:44;6.93;;;2.33;;
56477;SDS011;42382;53.210;5.772;2022-11-15T14:40:12;4.70;;;1.60;;
56477;SDS011;42382;53.210;5.772;2022-11-15T14:42:38;4.18;;;1.33;;
56477;SDS011;42382;53.210;5.772;2022-11-15T14:45:10;4.80;;;1.83;;
56477;SDS011;42382;53.210;5.772;2022-11-15T14:47:37;5.75;;;1.73;;
56477;SDS011;42382;53.210;5.772;2022-11-15T14:50:03;5.60;;;2.40;;
56477;SDS011;42382;53.210;5.772;2022-11-15T14:52:30;3.20;;;1.60;;
56477;SDS011;42382;53.210;5.772;2022-11-15T14:54:59;3.47;;;2.00;;
56477;SDS011;42382;53.210;5.772;2022-11-15T14:57:27;2.88;;;1.52;;
56477;SDS011;42382;53.210;5.772;2022-11-15T14:59:53;3.65;;;1.80;;
56477;SDS011;42382;53.210;5.772;2022-11-15T15:02:20;3.28;;;1.48;;
56477;SDS011;42382;53.210;5.772;2022-11-15T15:04:47;4.35;;;1.48;;
56477;SDS011;42382;53.210;5.772;2022-11-15T15:07:13;3.03;;;1.20;;
56477;SDS011;42382;53.210;5.772;2022-11-15T15:09:40;13.45;;;2.20;;
56477;SDS011;42382;53.210;5.772;2022-11-15T15:12:19;6.47;;;1.38;;
56477;SDS011;42382;53.210;5.772;2022-11-15T15:14:46;2.53;;;1.10;;
56477;SDS011;42382;53.210;5.772;2022-11-15T15:17:12;5.97;;;1.17;;
56477;SDS011;42382;53.210;5.772;2022-11-15T15:22:04;3.20;;;1.00;;
56477;SDS011;42382;53.210;5.772;2022-11-15T15:24:30;2.53;;;1.15;;
56477;SDS011;42382;53.210;5.772;2022-11-15T15:26:56;2.33;;;1.48;;
56477;SDS011;42382;53.210;5.772;2022-11-15T15:29:22;5.35;;;1.30;;
56477;SDS011;42382;53.210;5.772;2022-11-15T15:31:48;2.60;;;1.48;;
56477;SDS011;42382;53.210;5.772;2022-11-15T15:34:14;2.63;;;1.30;;
56477;SDS011;42382;53.210;5.772;2022-11-15T15:36:40;4.40;;;1.08;;
56477;SDS011;42382;53.210;5.772;2022-11-15T15:39:08;4.22;;;1.30;;
56477;SDS011;42382;53.210;5.772;2022-11-15T15:41:35;5.43;;;1.42;;
56477;SDS011;42382;53.210;5.772;2022-11-15T15:44:01;3.83;;;1.38;;
56477;SDS011;42382;53.210;5.772;2022-11-15T15:46:27;2.80;;;0.85;;
56477;SDS011;42382;53.210;5.772;2022-11-15T15:48:52;4.13;;;0.93;;
56477;SDS011;42382;53.210;5.772;2022-11-15T15:51:18;3.85;;;1.10;;
56477;SDS011;42382;53.210;5.772;2022-11-15T15:53:45;3.97;;;1.35;;
56477;SDS011;42382;53.210;5.772;2022-11-15T15:56:11;5.22;;;1.10;;
56477;SDS011;42382;53.210;5.772;2022-11-15T15:58:37;1.98;;;0.73;;
56477;SDS011;42382;53.210;5.772;2022-11-15T16:01:03;2.20;;;0.82;;
56477;SDS011;42382;53.210;5.772;2022-11-15T16:03:29;3.80;;;1.17;;
56477;SDS011;42382;53.210;5.772;2022-11-15T16:05:55;3.00;;;0.82;;
56477;SDS011;42382;53.210;5.772;2022-11-15T16:08:22;4.82;;;0.98;;
56477;SDS011;42382;53.210;5.772;2022-11-15T16:10:48;3.92;;;1.10;;
56477;SDS011;42382;53.210;5.772;2022-11-15T16:13:17;3.45;;;0.88;;
56477;SDS011;42382;53.210;5.772;2022-11-15T16:15:43;7.18;;;1.35;;
56477;SDS011;42382;53.210;5.772;2022-11-15T16:18:15;4.97;;;1.35;;
56477;SDS011;42382;53.210;5.772;2022-11-15T16:20:46;4.00;;;1.25;;
56477;SDS011;42382;53.210;5.772;2022-11-15T16:23:15;5.00;;;1.80;;
56477;SDS011;42382;53.210;5.772;2022-11-15T16:25:51;2.88;;;1.20;;
56477;SDS011;42382;53.210;5.772;2022-11-15T16:30:46;3.58;;;1.48;;
56477;SDS011;42382;53.210;5.772;2022-11-15T16:33:12;6.32;;;1.75;;
56477;SDS011;42382;53.210;5.772;2022-11-15T16:35:38;6.32;;;2.38;;
56477;SDS011;42382;53.210;5.772;2022-11-15T16:38:04;6.65;;;2.58;;
56477;SDS011;42382;53.210;5.772;2022-11-15T16:40:31;5.47;;;2.13;;
56477;SDS011;42382;53.210;5.772;2022-11-15T16:42:58;3.47;;;2.30;;
56477;SDS011;42382;53.210;5.772;2022-11-15T16:45:27;4.38;;;2.40;;
56477;SDS011;42382;53.210;5.772;2022-11-15T16:47:53;4.82;;;2.50;;
56477;SDS011;42382;53.210;5.772;2022-11-15T16:50:26;4.78;;;2.35;;
56477;SDS011;42382;53.210;5.772;2022-11-15T16:52:55;6.40;;;2.38;;
56477;SDS011;42382;53.210;5.772;2022-11-15T16:55:22;5.10;;;2.17;;
56477;SDS011;42382;53.210;5.772;2022-11-15T16:57:49;5.07;;;2.63;;
56477;SDS011;42382;53.210;5.772;2022-11-15T17:00:15;6.28;;;2.42;;
56477;SDS011;42382;53.210;5.772;2022-11-15T17:02:42;4.18;;;2.10;;
56477;SDS011;42382;53.210;5.772;2022-11-15T17:05:09;6.68;;;2.42;;
56477;SDS011;42382;53.210;5.772;2022-11-15T17:07:35;4.30;;;2.20;;
56477;SDS011;42382;53.210;5.772;2022-11-15T17:10:01;4.03;;;1.92;;
56477;SDS011;42382;53.210;5.772;2022-11-15T17:12:27;3.95;;;2.40;;
56477;SDS011;42382;53.210;5.772;2022-11-15T17:14:54;4.35;;;2.40;;
56477;SDS011;42382;53.210;5.772;2022-11-15T17:17:20;6.28;;;2.40;;
56477;SDS011;42382;53.210;5.772;2022-11-15T17:19:46;4.38;;;2.60;;
56477;SDS011;42382;53.210;5.772;2022-11-15T17:22:12;4.63;;;2.45;;
56477;SDS011;42382;53.210;5.772;2022-11-15T17:24:38;6.22;;;2.75;;
56477;SDS011;42382;53.210;5.772;2022-11-15T17:27:04;4.65;;;2.20;;
56477;SDS011;42382;53.210;5.772;2022-11-15T17:29:30;3.65;;;2.03;;
56477;SDS011;42382;53.210;5.772;2022-11-15T17:31:56;5.13;;;2.13;;
56477;SDS011;42382;53.210;5.772;2022-11-15T17:34:22;4.43;;;1.90;;
56477;SDS011;42382;53.210;5.772;2022-11-15T17:36:48;6.28;;;2.63;;
56477;SDS011;42382;53.210;5.772;2022-11-15T17:39:14;5.00;;;2.67;;
56477;SDS011;42382;53.210;5.772;2022-11-15T17:41:42;3.03;;;1.80;;
56477;SDS011;42382;53.210;5.772;2022-11-15T17:44:08;3.78;;;1.85;;
56477;SDS011;42382;53.210;5.772;2022-11-15T17:46:34;4.00;;;1.67;;
56477;SDS011;42382;53.210;5.772;2022-11-15T17:49:00;3.10;;;1.40;;
56477;SDS011;42382;53.210;5.772;2022-11-15T17:51:26;4.30;;;1.73;;
56477;SDS011;42382;53.210;5.772;2022-11-15T17:53:52;5.97;;;2.33;;
56477;SDS011;42382;53.210;5.772;2022-11-15T17:56:21;3.25;;;1.52;;
56477;SDS011;42382;53.210;5.772;2022-11-15T17:58:53;2.35;;;1.42;;
56477;SDS011;42382;53.210;5.772;2022-11-15T18:03:51;4.03;;;1.48;;
56477;SDS011;42382;53.210;5.772;2022-11-15T18:06:18;6.45;;;1.80;;
56477;SDS011;42382;53.210;5.772;2022-11-15T18:08:45;2.28;;;1.00;;
56477;SDS011;42382;53.210;5.772;2022-11-15T18:11:15;5.05;;;1.17;;
56477;SDS011;42382;53.210;5.772;2022-11-15T18:13:43;2.08;;;0.80;;
56477;SDS011;42382;53.210;5.772;2022-11-15T18:16:10;3.38;;;1.00;;
56477;SDS011;42382;53.210;5.772;2022-11-15T18:18:36;3.20;;;1.13;;
56477;SDS011;42382;53.210;5.772;2022-11-15T18:21:03;2.20;;;1.20;;
56477;SDS011;42382;53.210;5.772;2022-11-15T18:23:30;3.08;;;1.02;;
56477;SDS011;42382;53.210;5.772;2022-11-15T18:25:56;2.42;;;0.73;;
56477;SDS011;42382;53.210;5.772;2022-11-15T18:28:22;2.72;;;0.95;;
56477;SDS011;42382;53.210;5.772;2022-11-15T18:30:53;2.80;;;1.02;;
56477;SDS011;42382;53.210;5.772;2022-11-15T18:33:19;3.65;;;0.93;;
56477;SDS011;42382;53.210;5.772;2022-11-15T18:35:45;3.70;;;0.93;;
56477;SDS011;42382;53.210;5.772;2022-11-15T18:38:12;1.70;;;0.52;;
56477;SDS011;42382;53.210;5.772;2022-11-15T18:40:38;5.57;;;1.23;;
56477;SDS011;42382;53.210;5.772;2022-11-15T18:43:04;4.55;;;1.15;;
56477;SDS011;42382;53.210;5.772;2022-11-15T18:45:32;3.40;;;0.88;;
56477;SDS011;42382;53.210;5.772;2022-11-15T18:47:59;2.63;;;0.80;;
56477;SDS011;42382;53.210;5.772;2022-11-15T18:50:25;2.70;;;0.50;;
56477;SDS011;42382;53.210;5.772;2022-11-15T18:52:51;1.67;;;0.43;;
56477;SDS011;42382;53.210;5.772;2022-11-15T18:55:17;4.57;;;0.63;;